sensor_id;sensor_type;location;lat;lon;timestamp;temperature;humidity
52769;DHT22;40471;44.534;18.644;2023-12-28T00:01:50;4.90;99.90
52769;DHT22;40471;44.534;18.644;2023-12-28T00:04:16;4.90;99.90
52769;DHT22;40471;44.534;18.644;2023-12-28T00:06:41;4.90;99.90
52769;DHT22;40471;44.534;18.644;2023-12-28T00:09:07;4.90;99.90
52769;DHT22;40471;44.534;18.644;2023-12-28T00:11:34;4.90;99.90
52769;DHT22;40471;44.534;18.644;2023-12-28T00:13:59;4.90;99.90
52769;DHT22;40471;44.534;18.644;2023-12-28T00:16:25;4.80;99.90
52769;DHT22;40471;44.534;18.644;2023-12-28T00:18:51;4.80;99.90
52769;DHT22;40471;44.534;18.644;2023-12-28T00:21:16;4.80;99.90
52769;DHT22;40471;44.534;18.644;2023-12-28T00:23:42;4.80;99.90
52769;DHT22;40471;44.534;18.644;2023-12-28T00:26:07;4.80;99.90
52769;DHT22;40471;44.534;18.644;2023-12-28T00:28:34;4.80;99.90
52769;DHT22;40471;44.534;18.644;2023-12-28T00:31:00;4.70;99.90
52769;DHT22;40471;44.534;18.644;2023-12-28T00:33:26;4.70;99.90
52769;DHT22;40471;44.534;18.644;2023-12-28T00:35:51;4.80;99.90
52769;DHT22;40471;44.534;18.644;2023-12-28T00:38:17;4.80;99.90
52769;DHT22;40471;44.534;18.644;2023-12-28T00:40:42;4.80;99.90
52769;DHT22;40471;44.534;18.644;2023-12-28T00:43:09;4.80;99.90
52769;DHT22;40471;44.534;18.644;2023-12-28T00:45:34;4.80;99.90
52769;DHT22;40471;44.534;18.644;2023-12-28T00:48:00;4.70;99.90
52769;DHT22;40471;44.534;18.644;2023-12-28T01:08:44;4.60;99.90
52769;DHT22;40471;44.534;18.644;2023-12-28T01:11:10;4.60;99.90
52769;DHT22;40471;44.534;18.644;2023-12-28T01:13:36;4.60;99.90
52769;DHT22;40471;44.534;18.644;2023-12-28T01:16:02;4.70;99.90
52769;DHT22;40471;44.534;18.644;2023-12-28T01:18:29;4.70;99.90
52769;DHT22;40471;44.534;18.644;2023-12-28T01:20:55;4.60;99.90
52769;DHT22;40471;44.534;18.644;2023-12-28T01:23:22;4.60;99.90
52769;DHT22;40471;44.534;18.644;2023-12-28T01:25:47;4.50;99.90
52769;DHT22;40471;44.534;18.644;2023-12-28T01:28:13;4.40;99.90
52769;DHT22;40471;44.534;18.644;2023-12-28T01:30:39;4.40;99.90
52769;DHT22;40471;44.534;18.644;2023-12-28T01:33:04;4.40;99.90
52769;DHT22;40471;44.534;18.644;2023-12-28T01:35:30;4.30;99.90
52769;DHT22;40471;44.534;18.644;2023-12-28T01:37:55;4.30;99.90
52769;DHT22;40471;44.534;18.644;2023-12-28T01:40:22;4.30;99.90
52769;DHT22;40471;44.534;18.644;2023-12-28T01:42:48;4.30;99.90
52769;DHT22;40471;44.534;18.644;2023-12-28T01:45:13;4.30;99.90
52769;DHT22;40471;44.534;18.644;2023-12-28T01:47:39;4.30;99.90
52769;DHT22;40471;44.534;18.644;2023-12-28T01:50:05;4.10;99.90
52769;DHT22;40471;44.534;18.644;2023-12-28T01:52:31;3.90;99.90
52769;DHT22;40471;44.534;18.644;2023-12-28T01:54:57;3.90;99.90
52769;DHT22;40471;44.534;18.644;2023-12-28T01:57:22;3.90;99.90
52769;DHT22;40471;44.534;18.644;2023-12-28T01:59:48;3.80;99.90
52769;DHT22;40471;44.534;18.644;2023-12-28T02:02:14;3.80;99.90
52769;DHT22;40471;44.534;18.644;2023-12-28T02:04:39;3.90;99.90
52769;DHT22;40471;44.534;18.644;2023-12-28T02:07:05;3.90;99.90
52769;DHT22;40471;44.534;18.644;2023-12-28T02:09:31;3.80;99.90
52769;DHT22;40471;44.534;18.644;2023-12-28T02:11:56;3.80;99.90
52769;DHT22;40471;44.534;18.644;2023-12-28T02:14:22;3.80;99.90
52769;DHT22;40471;44.534;18.644;2023-12-28T02:16:56;3.80;99.90
52769;DHT22;40471;44.534;18.644;2023-12-28T02:19:27;3.80;99.90
52769;DHT22;40471;44.534;18.644;2023-12-28T02:21:56;3.70;99.90
52769;DHT22;40471;44.534;18.644;2023-12-28T02:24:24;3.70;99.90
52769;DHT22;40471;44.534;18.644;2023-12-28T02:26:50;3.70;99.90
52769;DHT22;40471;44.534;18.644;2023-12-28T02:29:17;3.70;99.90
52769;DHT22;40471;44.534;18.644;2023-12-28T02:31:45;3.70;99.90
52769;DHT22;40471;44.534;18.644;2023-12-28T02:34:16;3.70;99.90
52769;DHT22;40471;44.534;18.644;2023-12-28T02:36:44;3.60;99.90
52769;DHT22;40471;44.534;18.644;2023-12-28T02:39:11;3.60;99.90
52769;DHT22;40471;44.534;18.644;2023-12-28T02:41:39;3.60;99.90
52769;DHT22;40471;44.534;18.644;2023-12-28T02:44:05;3.60;99.90
52769;DHT22;40471;44.534;18.644;2023-12-28T02:46:31;3.60;99.90
52769;DHT22;40471;44.534;18.644;2023-12-28T02:48:57;3.60;99.90
52769;DHT22;40471;44.534;18.644;2023-12-28T02:51:24;3.60;99.90
52769;DHT22;40471;44.534;18.644;2023-12-28T02:53:50;3.60;99.90
52769;DHT22;40471;44.534;18.644;2023-12-28T02:56:16;3.50;99.90
52769;DHT22;40471;44.534;18.644;2023-12-28T02:58:41;3.50;99.90
52769;DHT22;40471;44.534;18.644;2023-12-28T03:01:07;3.50;99.90
52769;DHT22;40471;44.534;18.644;2023-12-28T03:03:33;3.50;99.90
52769;DHT22;40471;44.534;18.644;2023-12-28T03:05:59;3.50;99.90
52769;DHT22;40471;44.534;18.644;2023-12-28T03:08:24;3.50;99.90
52769;DHT22;40471;44.534;18.644;2023-12-28T03:10:50;3.50;99.90
52769;DHT22;40471;44.534;18.644;2023-12-28T03:13:16;3.50;99.90
52769;DHT22;40471;44.534;18.644;2023-12-28T03:15:42;3.50;99.90
52769;DHT22;40471;44.534;18.644;2023-12-28T03:18:07;3.50;99.90
52769;DHT22;40471;44.534;18.644;2023-12-28T03:20:33;3.50;99.90
52769;DHT22;40471;44.534;18.644;2023-12-28T03:22:58;3.50;99.90
52769;DHT22;40471;44.534;18.644;2023-12-28T03:25:24;3.40;99.90
52769;DHT22;40471;44.534;18.644;2023-12-28T03:27:49;3.40;99.90
52769;DHT22;40471;44.534;18.644;2023-12-28T03:30:15;3.30;99.90
52769;DHT22;40471;44.534;18.644;2023-12-28T03:32:43;3.30;99.90
52769;DHT22;40471;44.534;18.644;2023-12-28T03:35:08;3.20;99.90
52769;DHT22;40471;44.534;18.644;2023-12-28T03:37:35;3.20;99.90
52769;DHT22;40471;44.534;18.644;2023-12-28T03:40:01;3.20;99.90
52769;DHT22;40471;44.534;18.644;2023-12-28T03:42:26;3.20;99.90
52769;DHT22;40471;44.534;18.644;2023-12-28T03:44:52;3.20;99.90
52769;DHT22;40471;44.534;18.644;2023-12-28T03:47:17;3.30;99.90
52769;DHT22;40471;44.534;18.644;2023-12-28T03:49:43;3.30;99.90
52769;DHT22;40471;44.534;18.644;2023-12-28T03:52:09;3.30;99.90
52769;DHT22;40471;44.534;18.644;2023-12-28T03:54:34;3.30;99.90
52769;DHT22;40471;44.534;18.644;2023-12-28T03:57:00;3.30;99.90
52769;DHT22;40471;44.534;18.644;2023-12-28T04:17:31;3.10;99.90
52769;DHT22;40471;44.534;18.644;2023-12-28T04:19:57;3.00;99.90
52769;DHT22;40471;44.534;18.644;2023-12-28T04:22:23;3.00;99.90
52769;DHT22;40471;44.534;18.644;2023-12-28T04:24:48;3.00;99.90
52769;DHT22;40471;44.534;18.644;2023-12-28T04:27:14;2.90;99.90
52769;DHT22;40471;44.534;18.644;2023-12-28T04:29:39;2.90;99.90
52769;DHT22;40471;44.534;18.644;2023-12-28T04:32:05;2.90;99.90
52769;DHT22;40471;44.534;18.644;2023-12-28T04:34:31;2.90;99.90
52769;DHT22;40471;44.534;18.644;2023-12-28T04:55:15;2.10;99.90
52769;DHT22;40471;44.534;18.644;2023-12-28T04:57:41;2.00;99.90
52769;DHT22;40471;44.534;18.644;2023-12-28T05:00:07;1.90;99.90
52769;DHT22;40471;44.534;18.644;2023-12-28T05:20:49;2.30;99.90
52769;DHT22;40471;44.534;18.644;2023-12-28T05:23:15;2.40;99.90
52769;DHT22;40471;44.534;18.644;2023-12-28T05:25:40;2.40;99.90
52769;DHT22;40471;44.534;18.644;2023-12-28T05:28:06;2.40;99.90
52769;DHT22;40471;44.534;18.644;2023-12-28T05:30:33;2.50;99.90
52769;DHT22;40471;44.534;18.644;2023-12-28T05:32:58;2.50;99.90
52769;DHT22;40471;44.534;18.644;2023-12-28T05:35:24;2.50;99.90
52769;DHT22;40471;44.534;18.644;2023-12-28T05:37:49;2.50;99.90
52769;DHT22;40471;44.534;18.644;2023-12-28T05:43:18;2.50;99.90
52769;DHT22;40471;44.534;18.644;2023-12-28T05:45:43;2.40;99.90
52769;DHT22;40471;44.534;18.644;2023-12-28T05:48:09;2.40;99.90
52769;DHT22;40471;44.534;18.644;2023-12-28T05:50:35;2.40;99.90
52769;DHT22;40471;44.534;18.644;2023-12-28T05:53:00;2.40;99.90
52769;DHT22;40471;44.534;18.644;2023-12-28T05:55:26;2.40;99.90
52769;DHT22;40471;44.534;18.644;2023-12-28T05:57:51;2.50;99.90
52769;DHT22;40471;44.534;18.644;2023-12-28T06:00:17;2.50;99.90
52769;DHT22;40471;44.534;18.644;2023-12-28T06:02:43;2.50;99.90
52769;DHT22;40471;44.534;18.644;2023-12-28T06:05:08;2.50;99.90
52769;DHT22;40471;44.534;18.644;2023-12-28T06:07:34;2.50;99.90
52769;DHT22;40471;44.534;18.644;2023-12-28T06:10:00;2.40;99.90
52769;DHT22;40471;44.534;18.644;2023-12-28T06:12:25;2.40;99.90
52769;DHT22;40471;44.534;18.644;2023-12-28T06:14:51;2.40;99.90
52769;DHT22;40471;44.534;18.644;2023-12-28T06:17:17;2.40;99.90
52769;DHT22;40471;44.534;18.644;2023-12-28T06:19:44;2.40;99.90
52769;DHT22;40471;44.534;18.644;2023-12-28T06:22:09;2.40;99.90
52769;DHT22;40471;44.534;18.644;2023-12-28T06:24:38;2.40;99.90
52769;DHT22;40471;44.534;18.644;2023-12-28T06:27:04;2.40;99.90
52769;DHT22;40471;44.534;18.644;2023-12-28T06:29:46;2.40;99.90
52769;DHT22;40471;44.534;18.644;2023-12-28T06:32:29;2.50;99.90
52769;DHT22;40471;44.534;18.644;2023-12-28T06:35:13;2.50;99.90
52769;DHT22;40471;44.534;18.644;2023-12-28T06:40:33;2.40;99.90
52769;DHT22;40471;44.534;18.644;2023-12-28T06:42:59;2.40;99.90
52769;DHT22;40471;44.534;18.644;2023-12-28T06:45:24;2.40;99.90
52769;DHT22;40471;44.534;18.644;2023-12-28T06:47:54;2.50;99.90
52769;DHT22;40471;44.534;18.644;2023-12-28T06:50:19;2.50;99.90
52769;DHT22;40471;44.534;18.644;2023-12-28T06:52:45;2.50;99.90
52769;DHT22;40471;44.534;18.644;2023-12-28T06:55:11;2.60;99.90
52769;DHT22;40471;44.534;18.644;2023-12-28T06:57:36;2.70;99.90
52769;DHT22;40471;44.534;18.644;2023-12-28T07:00:02;2.80;99.90
52769;DHT22;40471;44.534;18.644;2023-12-28T07:02:28;2.70;99.90
52769;DHT22;40471;44.534;18.644;2023-12-28T07:04:54;2.80;99.90
52769;DHT22;40471;44.534;18.644;2023-12-28T07:07:19;2.80;99.90
52769;DHT22;40471;44.534;18.644;2023-12-28T07:09:45;2.80;99.90
52769;DHT22;40471;44.534;18.644;2023-12-28T07:12:11;2.80;99.90
52769;DHT22;40471;44.534;18.644;2023-12-28T07:14:36;2.90;99.90
52769;DHT22;40471;44.534;18.644;2023-12-28T07:17:02;2.90;99.90
52769;DHT22;40471;44.534;18.644;2023-12-28T07:19:41;3.00;99.90
52769;DHT22;40471;44.534;18.644;2023-12-28T07:22:23;3.10;99.90
52769;DHT22;40471;44.534;18.644;2023-12-28T07:24:49;2.90;99.90
52769;DHT22;40471;44.534;18.644;2023-12-28T07:27:14;3.10;99.90
52769;DHT22;40471;44.534;18.644;2023-12-28T07:29:41;3.10;99.90
52769;DHT22;40471;44.534;18.644;2023-12-28T07:32:07;3.10;99.90
52769;DHT22;40471;44.534;18.644;2023-12-28T07:34:35;3.20;99.90
52769;DHT22;40471;44.534;18.644;2023-12-28T07:37:01;3.20;99.90
52769;DHT22;40471;44.534;18.644;2023-12-28T07:39:27;3.20;99.90
52769;DHT22;40471;44.534;18.644;2023-12-28T07:41:56;3.30;99.90
52769;DHT22;40471;44.534;18.644;2023-12-28T07:44:31;3.40;99.90
52769;DHT22;40471;44.534;18.644;2023-12-28T07:47:06;3.50;99.90
52769;DHT22;40471;44.534;18.644;2023-12-28T07:49:38;3.50;99.90
52769;DHT22;40471;44.534;18.644;2023-12-28T07:52:05;3.70;99.90
52769;DHT22;40471;44.534;18.644;2023-12-28T07:54:31;3.80;99.90
52769;DHT22;40471;44.534;18.644;2023-12-28T07:56:57;3.80;99.90
52769;DHT22;40471;44.534;18.644;2023-12-28T07:59:22;4.00;99.90
52769;DHT22;40471;44.534;18.644;2023-12-28T08:01:51;4.10;99.90
52769;DHT22;40471;44.534;18.644;2023-12-28T08:04:16;4.10;99.90
52769;DHT22;40471;44.534;18.644;2023-12-28T08:06:42;4.20;99.90
52769;DHT22;40471;44.534;18.644;2023-12-28T08:09:08;4.20;99.90
52769;DHT22;40471;44.534;18.644;2023-12-28T08:11:34;4.20;99.90
52769;DHT22;40471;44.534;18.644;2023-12-28T08:14:00;4.20;99.90
52769;DHT22;40471;44.534;18.644;2023-12-28T08:16:26;4.30;99.90
52769;DHT22;40471;44.534;18.644;2023-12-28T08:18:52;4.40;99.90
52769;DHT22;40471;44.534;18.644;2023-12-28T08:21:18;4.40;99.90
52769;DHT22;40471;44.534;18.644;2023-12-28T08:23:44;4.50;99.90
52769;DHT22;40471;44.534;18.644;2023-12-28T08:26:09;4.50;99.90
52769;DHT22;40471;44.534;18.644;2023-12-28T08:28:36;4.50;99.90
52769;DHT22;40471;44.534;18.644;2023-12-28T08:31:01;4.60;99.90
52769;DHT22;40471;44.534;18.644;2023-12-28T08:33:27;4.60;99.90
52769;DHT22;40471;44.534;18.644;2023-12-28T08:35:53;4.60;99.90
52769;DHT22;40471;44.534;18.644;2023-12-28T08:38:19;4.60;99.90
52769;DHT22;40471;44.534;18.644;2023-12-28T08:40:45;4.60;99.90
52769;DHT22;40471;44.534;18.644;2023-12-28T08:43:11;4.70;99.90
52769;DHT22;40471;44.534;18.644;2023-12-28T08:45:38;4.70;99.90
52769;DHT22;40471;44.534;18.644;2023-12-28T08:48:05;4.70;99.90
52769;DHT22;40471;44.534;18.644;2023-12-28T08:50:30;4.60;99.90
52769;DHT22;40471;44.534;18.644;2023-12-28T08:52:56;4.60;99.90
52769;DHT22;40471;44.534;18.644;2023-12-28T08:55:22;4.70;99.90
52769;DHT22;40471;44.534;18.644;2023-12-28T08:57:47;4.80;99.90
52769;DHT22;40471;44.534;18.644;2023-12-28T09:00:13;4.90;99.90
52769;DHT22;40471;44.534;18.644;2023-12-28T09:02:40;4.90;99.90
52769;DHT22;40471;44.534;18.644;2023-12-28T09:05:06;5.00;99.90
52769;DHT22;40471;44.534;18.644;2023-12-28T09:07:32;5.10;99.90
52769;DHT22;40471;44.534;18.644;2023-12-28T09:09:58;5.10;99.90
52769;DHT22;40471;44.534;18.644;2023-12-28T09:12:27;5.10;99.90
52769;DHT22;40471;44.534;18.644;2023-12-28T09:15:00;5.20;99.90
52769;DHT22;40471;44.534;18.644;2023-12-28T09:17:29;5.20;99.90
52769;DHT22;40471;44.534;18.644;2023-12-28T09:20:14;5.30;99.90
52769;DHT22;40471;44.534;18.644;2023-12-28T09:22:40;5.40;99.90
52769;DHT22;40471;44.534;18.644;2023-12-28T09:25:09;5.20;99.90
52769;DHT22;40471;44.534;18.644;2023-12-28T09:27:34;5.60;99.90
52769;DHT22;40471;44.534;18.644;2023-12-28T09:30:01;5.70;99.90
52769;DHT22;40471;44.534;18.644;2023-12-28T09:32:27;5.60;99.90
52769;DHT22;40471;44.534;18.644;2023-12-28T09:38:11;5.60;99.90
52769;DHT22;40471;44.534;18.644;2023-12-28T09:41:25;5.70;99.90
52769;DHT22;40471;44.534;18.644;2023-12-28T09:43:56;5.70;99.90
52769;DHT22;40471;44.534;18.644;2023-12-28T09:46:24;5.90;99.90
52769;DHT22;40471;44.534;18.644;2023-12-28T09:52:07;6.30;99.90
52769;DHT22;40471;44.534;18.644;2023-12-28T09:54:42;6.50;99.90
52769;DHT22;40471;44.534;18.644;2023-12-28T09:57:09;6.60;99.90
52769;DHT22;40471;44.534;18.644;2023-12-28T09:59:35;6.90;99.90
52769;DHT22;40471;44.534;18.644;2023-12-28T10:02:03;6.90;99.90
52769;DHT22;40471;44.534;18.644;2023-12-28T10:04:31;7.00;99.90
52769;DHT22;40471;44.534;18.644;2023-12-28T10:07:03;7.20;99.90
52769;DHT22;40471;44.534;18.644;2023-12-28T10:09:28;7.30;99.90
52769;DHT22;40471;44.534;18.644;2023-12-28T10:11:56;7.40;99.90
52769;DHT22;40471;44.534;18.644;2023-12-28T10:14:21;7.50;99.90
52769;DHT22;40471;44.534;18.644;2023-12-28T10:16:47;7.30;99.90
52769;DHT22;40471;44.534;18.644;2023-12-28T10:19:13;7.20;99.90
52769;DHT22;40471;44.534;18.644;2023-12-28T10:21:39;7.00;99.90
52769;DHT22;40471;44.534;18.644;2023-12-28T10:24:05;7.20;99.90
52769;DHT22;40471;44.534;18.644;2023-12-28T10:26:31;7.50;99.90
52769;DHT22;40471;44.534;18.644;2023-12-28T10:28:59;7.60;99.90
52769;DHT22;40471;44.534;18.644;2023-12-28T10:31:25;7.80;99.90
52769;DHT22;40471;44.534;18.644;2023-12-28T10:33:51;7.90;99.90
52769;DHT22;40471;44.534;18.644;2023-12-28T10:36:17;8.20;99.90
52769;DHT22;40471;44.534;18.644;2023-12-28T10:38:47;8.40;99.90
52769;DHT22;40471;44.534;18.644;2023-12-28T10:41:13;8.40;99.90
52769;DHT22;40471;44.534;18.644;2023-12-28T10:44:24;9.00;99.90
52769;DHT22;40471;44.534;18.644;2023-12-28T10:46:26;8.60;99.90
52769;DHT22;40471;44.534;18.644;2023-12-28T10:58:11;9.10;99.90
52769;DHT22;40471;44.534;18.644;2023-12-28T11:00:43;9.30;99.90
52769;DHT22;40471;44.534;18.644;2023-12-28T11:03:11;9.60;99.90
52769;DHT22;40471;44.534;18.644;2023-12-28T11:05:38;9.80;99.90
52769;DHT22;40471;44.534;18.644;2023-12-28T11:08:06;10.10;99.90
52769;DHT22;40471;44.534;18.644;2023-12-28T11:10:32;10.20;99.90
52769;DHT22;40471;44.534;18.644;2023-12-28T11:12:58;10.40;99.90
52769;DHT22;40471;44.534;18.644;2023-12-28T11:15:25;10.20;99.90
52769;DHT22;40471;44.534;18.644;2023-12-28T11:17:51;10.00;99.90
52769;DHT22;40471;44.534;18.644;2023-12-28T11:20:17;9.80;99.90
52769;DHT22;40471;44.534;18.644;2023-12-28T11:22:43;9.70;99.90
52769;DHT22;40471;44.534;18.644;2023-12-28T11:25:18;9.50;99.90
52769;DHT22;40471;44.534;18.644;2023-12-28T11:27:45;9.40;99.90
52769;DHT22;40471;44.534;18.644;2023-12-28T11:30:11;9.50;99.90
52769;DHT22;40471;44.534;18.644;2023-12-28T11:32:38;9.80;99.90
52769;DHT22;40471;44.534;18.644;2023-12-28T11:35:06;9.80;99.90
52769;DHT22;40471;44.534;18.644;2023-12-28T11:37:35;10.00;99.90
52769;DHT22;40471;44.534;18.644;2023-12-28T11:40:11;10.80;99.90
52769;DHT22;40471;44.534;18.644;2023-12-28T11:42:37;10.50;99.90
52769;DHT22;40471;44.534;18.644;2023-12-28T11:45:12;11.80;99.90
52769;DHT22;40471;44.534;18.644;2023-12-28T11:47:38;11.70;99.90
52769;DHT22;40471;44.534;18.644;2023-12-28T11:50:08;12.00;99.90
52769;DHT22;40471;44.534;18.644;2023-12-28T11:52:35;11.40;99.90
52769;DHT22;40471;44.534;18.644;2023-12-28T11:55:00;11.90;99.90
52769;DHT22;40471;44.534;18.644;2023-12-28T11:57:26;12.60;99.90
52769;DHT22;40471;44.534;18.644;2023-12-28T11:59:55;12.10;99.90
52769;DHT22;40471;44.534;18.644;2023-12-28T12:02:21;13.10;99.90
52769;DHT22;40471;44.534;18.644;2023-12-28T12:04:46;13.50;99.90
52769;DHT22;40471;44.534;18.644;2023-12-28T12:07:12;13.30;99.90
52769;DHT22;40471;44.534;18.644;2023-12-28T12:09:37;13.50;99.90
52769;DHT22;40471;44.534;18.644;2023-12-28T12:12:03;14.00;99.90
52769;DHT22;40471;44.534;18.644;2023-12-28T12:14:29;14.30;99.90
52769;DHT22;40471;44.534;18.644;2023-12-28T12:16:55;13.40;99.90
52769;DHT22;40471;44.534;18.644;2023-12-28T12:19:22;13.50;99.90
52769;DHT22;40471;44.534;18.644;2023-12-28T12:21:48;13.60;99.90
52769;DHT22;40471;44.534;18.644;2023-12-28T12:24:18;13.50;99.90
52769;DHT22;40471;44.534;18.644;2023-12-28T12:26:45;13.70;99.90
52769;DHT22;40471;44.534;18.644;2023-12-28T12:29:10;13.70;99.90
52769;DHT22;40471;44.534;18.644;2023-12-28T12:31:36;14.30;99.90
52769;DHT22;40471;44.534;18.644;2023-12-28T12:34:04;14.90;99.90
52769;DHT22;40471;44.534;18.644;2023-12-28T12:36:31;15.20;99.90
52769;DHT22;40471;44.534;18.644;2023-12-28T12:38:57;15.30;99.90
52769;DHT22;40471;44.534;18.644;2023-12-28T12:41:23;15.60;99.90
52769;DHT22;40471;44.534;18.644;2023-12-28T12:43:48;15.20;99.90
52769;DHT22;40471;44.534;18.644;2023-12-28T12:46:14;14.00;99.90
52769;DHT22;40471;44.534;18.644;2023-12-28T12:48:43;15.40;99.90
52769;DHT22;40471;44.534;18.644;2023-12-28T12:51:19;14.80;99.90
52769;DHT22;40471;44.534;18.644;2023-12-28T12:53:45;15.00;99.90
52769;DHT22;40471;44.534;18.644;2023-12-28T12:56:10;15.00;99.90
52769;DHT22;40471;44.534;18.644;2023-12-28T12:58:36;15.10;99.90
52769;DHT22;40471;44.534;18.644;2023-12-28T13:01:02;15.80;99.90
52769;DHT22;40471;44.534;18.644;2023-12-28T13:03:28;15.30;99.90
52769;DHT22;40471;44.534;18.644;2023-12-28T13:05:56;15.90;98.90
52769;DHT22;40471;44.534;18.644;2023-12-28T13:08:22;15.70;98.60
52769;DHT22;40471;44.534;18.644;2023-12-28T13:10:48;15.70;98.90
52769;DHT22;40471;44.534;18.644;2023-12-28T13:13:15;15.20;99.90
52769;DHT22;40471;44.534;18.644;2023-12-28T13:15:41;15.30;99.90
52769;DHT22;40471;44.534;18.644;2023-12-28T13:18:09;15.30;99.90
52769;DHT22;40471;44.534;18.644;2023-12-28T13:20:35;15.60;99.90
52769;DHT22;40471;44.534;18.644;2023-12-28T13:23:01;15.50;99.90
52769;DHT22;40471;44.534;18.644;2023-12-28T13:25:26;15.50;99.30
52769;DHT22;40471;44.534;18.644;2023-12-28T13:27:52;15.30;99.20
52769;DHT22;40471;44.534;18.644;2023-12-28T13:30:18;15.90;99.90
52769;DHT22;40471;44.534;18.644;2023-12-28T13:32:44;16.00;97.50
52769;DHT22;40471;44.534;18.644;2023-12-28T13:35:10;15.90;97.90
52769;DHT22;40471;44.534;18.644;2023-12-28T13:37:35;16.00;96.90
52769;DHT22;40471;44.534;18.644;2023-12-28T13:40:01;15.90;96.20
52769;DHT22;40471;44.534;18.644;2023-12-28T13:42:26;15.80;96.60
52769;DHT22;40471;44.534;18.644;2023-12-28T13:44:52;15.40;97.80
52769;DHT22;40471;44.534;18.644;2023-12-28T13:47:19;15.20;99.40
52769;DHT22;40471;44.534;18.644;2023-12-28T13:49:46;15.00;99.90
52769;DHT22;40471;44.534;18.644;2023-12-28T13:52:13;14.90;99.90
52769;DHT22;40471;44.534;18.644;2023-12-28T13:54:38;14.90;99.90
52769;DHT22;40471;44.534;18.644;2023-12-28T13:57:05;15.10;99.90
52769;DHT22;40471;44.534;18.644;2023-12-28T13:59:31;15.00;99.90
52769;DHT22;40471;44.534;18.644;2023-12-28T14:01:57;15.00;99.90
52769;DHT22;40471;44.534;18.644;2023-12-28T14:04:25;14.90;99.90
52769;DHT22;40471;44.534;18.644;2023-12-28T14:06:51;14.70;99.90
52769;DHT22;40471;44.534;18.644;2023-12-28T14:09:16;14.30;99.90
52769;DHT22;40471;44.534;18.644;2023-12-28T14:11:47;14.00;99.90
52769;DHT22;40471;44.534;18.644;2023-12-28T14:14:13;13.80;99.90
52769;DHT22;40471;44.534;18.644;2023-12-28T14:16:39;13.90;99.90
52769;DHT22;40471;44.534;18.644;2023-12-28T14:19:07;13.30;99.90
52769;DHT22;40471;44.534;18.644;2023-12-28T14:21:36;12.70;99.90
52769;DHT22;40471;44.534;18.644;2023-12-28T14:24:03;12.50;99.90
52769;DHT22;40471;44.534;18.644;2023-12-28T14:26:30;13.00;99.90
52769;DHT22;40471;44.534;18.644;2023-12-28T14:28:57;12.90;99.90
52769;DHT22;40471;44.534;18.644;2023-12-28T14:31:31;12.90;99.90
52769;DHT22;40471;44.534;18.644;2023-12-28T14:34:00;12.80;99.90
52769;DHT22;40471;44.534;18.644;2023-12-28T14:36:27;12.60;99.90
52769;DHT22;40471;44.534;18.644;2023-12-28T14:38:57;12.40;99.90
52769;DHT22;40471;44.534;18.644;2023-12-28T14:41:23;12.00;99.90
52769;DHT22;40471;44.534;18.644;2023-12-28T14:43:48;11.70;99.90
52769;DHT22;40471;44.534;18.644;2023-12-28T14:46:14;11.60;99.90
52769;DHT22;40471;44.534;18.644;2023-12-28T14:48:40;11.60;99.90
52769;DHT22;40471;44.534;18.644;2023-12-28T14:54:09;11.50;99.90
52769;DHT22;40471;44.534;18.644;2023-12-28T14:56:34;11.30;99.90
52769;DHT22;40471;44.534;18.644;2023-12-28T14:59:00;11.30;99.90
52769;DHT22;40471;44.534;18.644;2023-12-28T15:01:26;11.00;99.90
52769;DHT22;40471;44.534;18.644;2023-12-28T15:03:52;11.20;99.90
52769;DHT22;40471;44.534;18.644;2023-12-28T15:06:17;11.30;99.90
52769;DHT22;40471;44.534;18.644;2023-12-28T15:08:43;11.10;99.90
52769;DHT22;40471;44.534;18.644;2023-12-28T15:11:09;10.70;99.90
52769;DHT22;40471;44.534;18.644;2023-12-28T15:13:36;11.10;99.90
52769;DHT22;40471;44.534;18.644;2023-12-28T15:16:05;10.80;99.90
52769;DHT22;40471;44.534;18.644;2023-12-28T15:18:31;10.80;99.90
52769;DHT22;40471;44.534;18.644;2023-12-28T15:21:09;10.90;99.90
52769;DHT22;40471;44.534;18.644;2023-12-28T15:23:34;10.50;99.90
52769;DHT22;40471;44.534;18.644;2023-12-28T15:26:00;10.60;99.90
52769;DHT22;40471;44.534;18.644;2023-12-28T15:28:27;10.60;99.90
52769;DHT22;40471;44.534;18.644;2023-12-28T15:49:05;9.90;99.90
52769;DHT22;40471;44.534;18.644;2023-12-28T15:51:38;9.80;99.90
52769;DHT22;40471;44.534;18.644;2023-12-28T15:54:07;10.10;99.90
52769;DHT22;40471;44.534;18.644;2023-12-28T15:56:35;9.10;99.90
52769;DHT22;40471;44.534;18.644;2023-12-28T15:59:03;9.50;99.90
52769;DHT22;40471;44.534;18.644;2023-12-28T16:01:32;9.40;99.90
52769;DHT22;40471;44.534;18.644;2023-12-28T16:04:03;8.80;99.90
52769;DHT22;40471;44.534;18.644;2023-12-28T16:06:39;9.00;99.90
52769;DHT22;40471;44.534;18.644;2023-12-28T16:24:23;8.40;99.90
52769;DHT22;40471;44.534;18.644;2023-12-28T16:26:49;8.40;99.90
52769;DHT22;40471;44.534;18.644;2023-12-28T16:29:15;8.20;99.90
52769;DHT22;40471;44.534;18.644;2023-12-28T16:31:40;8.10;99.90
52769;DHT22;40471;44.534;18.644;2023-12-28T16:34:06;8.20;99.90
52769;DHT22;40471;44.534;18.644;2023-12-28T16:36:32;8.10;99.90
52769;DHT22;40471;44.534;18.644;2023-12-28T16:38:58;8.00;99.90
52769;DHT22;40471;44.534;18.644;2023-12-28T16:41:28;8.00;99.90
52769;DHT22;40471;44.534;18.644;2023-12-28T16:43:55;8.00;99.90
52769;DHT22;40471;44.534;18.644;2023-12-28T16:46:22;7.90;99.90
52769;DHT22;40471;44.534;18.644;2023-12-28T16:48:48;7.80;99.90
52769;DHT22;40471;44.534;18.644;2023-12-28T16:51:16;7.80;99.90
52769;DHT22;40471;44.534;18.644;2023-12-28T16:53:50;7.80;99.90
52769;DHT22;40471;44.534;18.644;2023-12-28T16:56:21;8.00;99.90
52769;DHT22;40471;44.534;18.644;2023-12-28T16:58:47;7.70;99.90
52769;DHT22;40471;44.534;18.644;2023-12-28T17:01:13;7.70;99.90
52769;DHT22;40471;44.534;18.644;2023-12-28T17:03:39;7.60;99.90
52769;DHT22;40471;44.534;18.644;2023-12-28T17:06:04;7.60;99.90
52769;DHT22;40471;44.534;18.644;2023-12-28T17:08:30;7.60;99.90
52769;DHT22;40471;44.534;18.644;2023-12-28T17:10:56;7.60;99.90
52769;DHT22;40471;44.534;18.644;2023-12-28T17:13:22;7.60;99.90
52769;DHT22;40471;44.534;18.644;2023-12-28T17:15:48;7.50;99.90
52769;DHT22;40471;44.534;18.644;2023-12-28T17:18:16;7.40;99.90
52769;DHT22;40471;44.534;18.644;2023-12-28T17:20:42;7.40;99.90
52769;DHT22;40471;44.534;18.644;2023-12-28T17:28:23;7.20;99.90
52769;DHT22;40471;44.534;18.644;2023-12-28T17:30:50;7.20;99.90
52769;DHT22;40471;44.534;18.644;2023-12-28T17:33:16;6.70;99.90
52769;DHT22;40471;44.534;18.644;2023-12-28T17:35:45;7.20;99.90
52769;DHT22;40471;44.534;18.644;2023-12-28T17:38:11;7.10;99.90
52769;DHT22;40471;44.534;18.644;2023-12-28T17:40:37;6.50;99.90
52769;DHT22;40471;44.534;18.644;2023-12-28T18:01:23;6.80;99.90